• Join FlightAware (Why Join?)
  • Login
  • US Flag 
01:33PM EST


 

Airport Tracker/Info


-or-


 

Live Flight TrackerFlight Track Log ✈ SWA1301 ✈ 28-Jun-2014 ✈ KCAK - KDEN

Flight Track Log - Related Links

Times and Time Zones

All times are in EDT time to prevent confusion due to time zone crossing. See the SWA1301 flight status page for this flight to view local times or setup timezone preferences in your user account.

Time Position Orientation Groundspeed Altitude Reporting Facility
EDT Latitude Longitude Course Direction KTS MPH feet Rate Location/Type
03:43PM 40.8450 -81.5419 227° Southwest 219 252 4,400  Level Cleveland Center
03:44PM 40.8194 -81.6392 251° West 286 329 7,800 3,120 Climbing Cleveland Center
03:45PM 40.8183 -81.7444 269° West 287 330 10,900 2,700 Climbing Cleveland Center
03:46PM 40.8275 -81.8725 275° West 346 398 13,400 2,520 Climbing Cleveland Center
03:47PM 40.8353 -82.0056 274° West 357 411 16,200 2,640 Climbing Cleveland Center
03:48PM 40.8433 -82.3017 276° West  Level FlightAware Approximate
03:48PM 40.8444 -82.1703 274° West 377 434 18,900  Level Cleveland Center
03:50PM 40.8531 -82.3172 274° West 392 451 21,300 2,160 Climbing Cleveland Center
03:51PM 40.8619 -82.4683 274° West 403 464 23,400 1,860 Climbing Cleveland Center
03:52PM 40.8728 -82.6219 275° West 410 472 25,200 1,680 Climbing Cleveland Center
03:53PM 40.9078 -82.7792 286° West 434 499 26,900 1,620 Climbing Cleveland Center
03:54PM 40.9397 -82.9361 285° West 437 503 28,600 1,440 Climbing Cleveland Center
03:55PM 40.9717 -83.0994 285° West 449 517 29,900 1,560 Climbing Cleveland Center
03:56PM 41.0081 -83.2744 285° West 464 534 31,900 1,920 Climbing Cleveland Center
03:57PM 41.0411 -83.4344 285° West 460 529 33,900 1,740 Climbing Cleveland Center
03:58PM 41.0719 -83.5892 285° West 440 506 35,600 1,260 Climbing Cleveland Center
03:59PM 41.1017 -83.7436 284° West 435 501 36,600 1,020 Climbing Cleveland Center
04:00PM 41.1328 -83.9072 284° West 434 499 37,800 660 Climbing Cleveland Center
04:01PM 41.1692 -84.0911 285° West 432 497 38,000 60 Climbing Cleveland Center
04:02PM 41.1994 -84.2450 285° West 432 497 38,000  Level Cleveland Center
04:03PM 41.2281 -84.3972 284° West 430 495 38,000  Level Cleveland Center
04:04PM 41.2567 -84.5503 284° West 430 495 38,000  Level Cleveland Center
04:05PM 41.2853 -84.7006 284° West 426 490 38,000  Level Chicago Center
04:06PM 41.3142 -84.8536 284° West 426 490 38,000  Level Chicago Center
04:07PM 41.3281 -85.0069 277° West 422 486 38,000  Level Chicago Center
04:08PM 41.3303 -85.1628 271° West 421 484 38,000  Level Chicago Center
04:09PM 41.3122 -85.3481 263° West 417 480 38,000  Level Chicago Center
04:10PM 41.2975 -85.5031 263° West 417 480 38,000  Level Chicago Center
04:11PM 41.2847 -85.6592 264° West 419 482 38,000  Level Chicago Center
04:12PM 41.2703 -85.8142 263° West 419 482 38,000  Level Chicago Center
04:13PM 41.2569 -85.9697 264° West 420 483 38,000  Level Chicago Center
04:14PM 41.2519 -86.1269 268° West 421 484 38,000  Level Chicago Center
04:15PM 41.2525 -86.2850 270° West 423 487 38,000  Level Chicago Center
04:16PM 41.2617 -86.4431 274° West 426 490 38,000  Level Chicago Center
04:17PM 41.2703 -86.6031 274° West 430 495 38,000  Level Chicago Center
04:18PM 41.2806 -86.7817 274° West 430 495 38,000  Level Chicago Center
04:19PM 41.2892 -86.9378 274° West 427 491 38,000  Level Chicago Center
04:20PM 41.2967 -87.0967 274° West 427 491 38,000  Level Chicago Center
04:21PM 41.3047 -87.2511 274° West 422 486 38,000  Level Chicago Center
04:22PM 41.3131 -87.4383 273° West 421 484 38,000  Level Chicago Center
04:24PM 41.3211 -87.5961 274° West 424 488 38,000  Level Chicago Center
04:25PM 41.3283 -87.7519 274° West 423 487 38,000  Level Chicago Center
04:26PM 41.3347 -87.9092 273° West 423 487 38,000  Level Chicago Center
04:27PM 41.3467 -88.0850 275° West 435 501 38,000  Level Chicago Center
04:28PM 41.3514 -88.2364 272° West 431 496 38,000  Level Chicago Center
04:29PM 41.3914 -88.3914 289° West 436 502 38,000  Level Chicago Center
04:30PM 41.4275 -88.5464 287° West 437 503 38,000  Level Chicago Center
04:31PM 41.4611 -88.7011 286° West 437 503 38,000  Level Chicago Center
04:32PM 41.4931 -88.8578 285° West 437 503 38,000  Level Chicago Center
04:33PM 41.5244 -89.0136 285° West 437 503 38,000  Level Chicago Center
04:34PM 41.5639 -89.2003 286° West 437 503 38,000  Level Chicago Center
04:35PM 41.5983 -89.3586 286° West 441 507 38,000  Level Chicago Center
04:36PM 41.6256 -89.5167 283° West 441 507 38,000  Level Chicago Center
04:37PM 41.6531 -89.6789 283° West 446 513 38,000  Level Chicago Center
04:38PM 41.6731 -89.8408 279° West 446 513 38,000  Level Chicago Center
04:39PM 41.6889 -90.0025 278° West 445 512 38,000  Level Chicago Center
04:40PM 41.7017 -90.1647 276° West 445 512 38,000  Level Chicago Center
04:41PM 41.7156 -90.3572 276° West 439 505 38,000  Level Chicago Center
04:42PM 41.7253 -90.5164 275° West 434 499 38,000  Level Chicago Center
04:43PM 41.7319 -90.6661 273° West 434 499 38,000  Level Chicago Center
04:44PM 41.7400 -90.8244 274° West 433 498 38,000  Level Chicago Center
04:45PM 41.7392 -91.0139 270° West 429 494 38,000  Level Chicago Center
04:46PM 41.7369 -91.1733 269° West 428 493 38,000  Level Chicago Center
04:47PM 41.7342 -91.3328 269° West 429 494 38,000  Level Chicago Center
04:49PM 41.7264 -91.6483 268° West 425 489 38,000  Level Chicago Center
04:50PM 41.7228 -91.8039 268° West 423 487 38,000  Level Chicago Center
04:51PM 41.7192 -91.9847 269° West 411 473 38,000  Level Chicago Center
04:52PM 41.7142 -92.1336 267° West 405 466 38,000  Level Chicago Center
04:53PM 41.7103 -92.2814 268° West 400 460 38,000  Level Chicago Center
04:54PM 41.7061 -92.4294 268° West 401 461 38,000  Level Chicago Center
04:55PM 41.7019 -92.5764 268° West 401 461 38,000  Level Chicago Center
04:56PM 41.6969 -92.7231 267° West 399 459 38,000  Level Chicago Center
04:57PM 41.6908 -92.8867 267° West 398 458 38,000  Level Chicago Center
04:58PM 41.6869 -93.0333 268° West 397 457 38,000  Level Minneapolis Center
05:00PM 41.6817 -93.1764 267° West 394 453 38,000  Level Minneapolis Center
05:01PM 41.6767 -93.3222 267° West 394 453 38,000  Level Minneapolis Center
05:02PM 41.6742 -93.4969 269° West 394 453 38,000  Level Minneapolis Center
05:03PM 41.7058 -93.6378 287° West 400 460 38,000  Level Minneapolis Center
05:04PM 41.7383 -93.7789 287° West 400 460 38,000  Level Minneapolis Center
05:05PM 41.7717 -93.9264 287° West 408 470 38,000  Level Minneapolis Center
05:06PM 41.7658 -94.0744 267° West 401 461 38,000  Level Minneapolis Center
05:07PM 41.7539 -94.2214 264° West 400 460 38,000  Level Minneapolis Center
05:08PM 41.7417 -94.3978 265° West 398 458 38,000  Level Minneapolis Center
05:09PM 41.7306 -94.5436 264° West 397 457 38,000  Level Minneapolis Center
05:10PM 41.7194 -94.6903 264° West 397 457 38,000  Level Minneapolis Center
05:11PM 41.7081 -94.8372 264° West 397 457 38,000  Level Minneapolis Center
05:12PM 41.6964 -94.9864 264° West 398 458 38,000  Level Minneapolis Center
05:13PM 41.6844 -95.1333 264° West 401 461 38,000  Level Minneapolis Center
05:14PM 41.6719 -95.2825 264° West 401 461 38,000  Level Minneapolis Center
05:15PM 41.6569 -95.4642 264° West 408 470 38,000  Level Minneapolis Center
05:16PM 41.6447 -95.6117 264° West 405 466 38,000  Level Minneapolis Center
05:17PM 41.6314 -95.7619 263° West 407 468 38,000  Level Minneapolis Center
05:18PM 41.6175 -95.9142 263° West 408 470 38,000  Level Minneapolis Center
05:19PM 41.6014 -96.0631 262° West 408 470 38,000  Level Minneapolis Center
05:20PM 41.5689 -96.2042 253° West 398 458 38,000  Level Minneapolis Center
05:21PM 41.5281 -96.3636 251° West 398 458 38,000  Level Minneapolis Center
05:22PM 41.4917 -96.5028 251° West 399 459 38,000  Level Minneapolis Center
05:23PM 41.4542 -96.6411 250° West 399 459 38,000  Level Minneapolis Center
05:24PM 41.4156 -96.7786 250° West 399 459 38,000  Level Minneapolis Center
05:25PM 41.3750 -96.9178 249° West 399 459 38,000  Level Minneapolis Center
05:26PM 41.3278 -97.0875 250° West 405 466 38,000  Level Minneapolis Center
05:27PM 41.2894 -97.2289 250° West 407 468 38,000  Level Minneapolis Center
05:28PM 41.2622 -97.3753 256° West 407 468 38,000  Level Minneapolis Center
05:29PM 41.2442 -97.5397 262° West 410 472 38,000  Level Minneapolis Center
05:30PM 41.2242 -97.6906 260° West 411 473 38,000  Level Minneapolis Center
05:31PM 41.2036 -97.8422 260° West 413 475 38,000  Level Minneapolis Center
05:32PM 41.1822 -97.9961 260° West 418 481 38,000  Level Minneapolis Center
05:34PM 41.1617 -98.1486 260° West 418 481 38,000  Level Minneapolis Center
05:35PM 41.1411 -98.3033 260° West 420 483 38,000  Level Minneapolis Center
05:36PM 41.1169 -98.4717 259° West 421 484 38,000  Level Minneapolis Center
05:37PM 41.0950 -98.6211 259° West 418 481 38,000  Level Minneapolis Center
05:38PM 41.0728 -98.7744 259° West 420 483 38,000  Level Minneapolis Center
05:39PM 41.0494 -98.9308 259° West 428 493 38,000  Level Minneapolis Center
05:40PM 41.0283 -99.0839 260° West 427 491 38,000  Level Minneapolis Center
05:40PM 41.0153 -99.1733 259° West 426 490 38,000  Level Denver Center
05:41PM 40.9928 -99.3267 259° West 426 490 38,000  Level Denver Center
05:42PM 40.9694 -99.4800 259° West 426 490 38,000  Level Denver Center
05:43PM 40.9422 -99.6642 259° West 426 490 38,000  Level Denver Center
05:44PM 40.9192 -99.8144 259° West 422 486 38,000  Level Denver Center
05:45PM 40.8961 -99.9664 259° West 416 479 38,000  Level Denver Center
05:46PM 40.8739 -100.1067 258° West 412 474 38,000  Level Denver Center
05:47PM 40.8475 -100.2706 258° West 411 473 38,000  Level Denver Center
05:48PM 40.8258 -100.4100 258° West 408 470 38,000  Level Denver Center
05:49PM 40.8036 -100.5511 258° West 408 470 38,000  Level Denver Center
05:50PM 40.7744 -100.7167 257° West 411 473 38,000  Level Denver Center
05:52PM 40.7508 -100.8656 258° West 415 478 38,000  Level Denver Center
05:53PM 40.7289 -101.0050 258° West 407 468 38,000  Level Denver Center
05:54PM 40.7017 -101.1667 258° West 406 467 38,000  Level Denver Center
05:55PM 40.6769 -101.3058 257° West 406 467 38,000  Level Denver Center
05:56PM 40.6533 -101.4450 257° West 406 467 38,000  Level Denver Center
05:57PM 40.6250 -101.6064 257° West 406 467 38,000  Level Denver Center
05:58PM 40.6006 -101.7400 256° West 396 456 38,000 -540 Level Denver Center
05:59PM 40.5731 -101.8933 257° West 384 442 37,000 -960 Descending Denver Center
06:00PM 40.5500 -102.0194 257° West 373 429 36,100 -960 Descending Denver Center
06:01PM 40.5214 -102.1719 256° West 382 440 35,100 -1,020 Descending Denver Center
06:02PM 40.4958 -102.3042 256° West 386 444 34,100 -960 Descending Denver Center
06:03PM 40.4722 -102.4336 257° West 385 443 33,200 -1,020 Descending Denver Center
06:04PM 40.4444 -102.5814 256° West 377 434 32,000 -600 Descending Denver Center
06:05PM 40.4192 -102.7192 256° West 372 428 32,000  Level Denver Center
06:06PM 40.3939 -102.8525 256° West 378 435 32,000  Level Denver Center
06:07PM 40.3675 -102.9906 256° West 389 448 32,000  Level Denver Center
06:08PM 40.3417 -103.1289 256° West 390 449 32,000 -900 Level Denver Center
06:09PM 40.3142 -103.2667 255° West 391 450 30,200 -1,920 Descending Denver Center
06:10PM 40.2875 -103.4008 255° West 385 443 28,100 -2,040 Descending Denver Center
06:11PM 40.2636 -103.5317 257° West 373 429 26,100 -2,160 Descending Denver Center
06:12PM 40.2342 -103.6806 256° West 357 411 23,700 -1,980 Descending Denver Center
06:13PM 40.2092 -103.8003 255° West 345 397 22,100 -1,260 Descending Denver Center
06:14PM 40.1717 -103.9150 247° West 346 398 21,100 -1,440 Descending Denver Center
06:15PM 40.1183 -104.0311 239° Southwest 343 395 19,200 -1,860 Descending Denver Center
06:16PM 40.0708 -104.1331 239° Southwest 332 382 17,400 -1,800 Descending Denver Center
06:17PM 40.0244 -104.2328 239° Southwest 324 373 15,600 -1,800 Descending Denver Center
06:18PM 39.9747 -104.3383 238° Southwest 322 371 13,800 -1,320 Descending Denver Center
06:19PM 39.9306 -104.4342 239° Southwest 311 358 12,900 -1,320 Descending Denver Center
06:20PM 39.8661 -104.5000 218° Southwest 312 359 11,100 -1,080 Descending Denver Center
06:21PM 39.7797 -104.5014 181° South 282 325 10,800 -720 Descending Denver Center
06:22PM 39.7094 -104.5033 181° South 255 293 9,700 -1,020 Descending Denver Center
06:23PM 39.6528 -104.5328 202° Southwest 243 280 8,700 -840 Descending Denver Center
06:24PM 39.6736 -104.5997 292° West 216 249 8,000 -660 Descending Denver Center
06:25PM 39.7303 -104.6347 335° Northwest 214 246 7,400 -780 Descending Denver Center
06:26PM 39.7772 -104.6422 353° North 173 199 6,500 -900 Descending Denver Center
06:27PM 39.8233 -104.6419 360° North 160 184 5,600 -900 Descending Denver Center
06:29PM 39.8500 -104.6667 North  Level FlightAware Approximate
06:36PM 39.8617 -104.6732 North  Level Estimated
06:37PM 39.8617 -104.6732 North  Level Estimated
06:38PM 39.8617 -104.6732 North  Level Estimated
06:39PM 39.8617 -104.6732 North  Level Estimated